createdAt,value
2023-01-22T00:00:56.764Z,10.6
2023-01-22T00:07:16.557Z,10.6
2023-01-22T00:13:39.532Z,6.7
2023-01-22T00:19:59.538Z,6.7
2023-01-22T00:26:22.493Z,9.7
2023-01-22T00:32:42.505Z,9.7
2023-01-22T00:39:05.597Z,7.8
2023-01-22T00:45:25.531Z,7.8
2023-01-22T00:51:48.492Z,11.1
2023-01-22T00:58:08.582Z,11.1
2023-01-22T01:04:31.652Z,11.5
2023-01-22T01:10:51.510Z,11.5
2023-01-22T01:17:14.709Z,10.1
2023-01-22T01:23:34.523Z,10.1
2023-01-22T01:29:57.523Z,6.3
2023-01-22T01:36:19.729Z,6.3
2023-01-22T01:42:40.603Z,9.3
2023-01-22T01:49:00.591Z,9.3
2023-01-22T01:55:23.852Z,9
2023-01-22T02:01:43.561Z,9
2023-01-22T02:08:06.574Z,10.6
2023-01-22T02:14:26.739Z,10.6
2023-01-22T02:20:49.682Z,7
2023-01-22T02:27:09.688Z,7
2023-01-22T02:33:32.815Z,6.6
2023-01-22T02:39:52.559Z,6.6
2023-01-22T02:46:15.597Z,5.6
2023-01-22T02:52:35.728Z,5.6
2023-01-22T02:58:58.640Z,3.6
2023-01-22T03:05:18.574Z,3.6
2023-01-22T03:11:41.621Z,6
2023-01-22T03:18:01.589Z,6
2023-01-22T03:24:24.673Z,9.1
2023-01-22T03:30:44.619Z,9.1
2023-01-22T03:37:07.536Z,4.3
2023-01-22T03:43:27.573Z,4.3
2023-01-22T03:49:50.771Z,4.9
2023-01-22T03:56:10.603Z,4.9
2023-01-22T04:02:33.564Z,6.1
2023-01-22T04:25:04.618Z,5.1
2023-01-22T04:31:24.621Z,5.1
2023-01-22T04:37:47.560Z,4.9
2023-01-22T04:44:07.613Z,4.9
2023-01-22T04:50:30.611Z,5.6
2023-01-22T04:56:50.639Z,5.6
2023-01-22T05:03:13.660Z,3.5
2023-01-22T05:09:33.477Z,3.5
2023-01-22T05:15:56.789Z,7
2023-01-22T05:22:16.772Z,7
2023-01-22T05:28:39.634Z,4.2
2023-01-22T05:34:59.545Z,4.2
2023-01-22T05:41:22.638Z,7.5
2023-01-22T05:47:42.507Z,7.5
2023-01-22T05:54:05.502Z,3.4
2023-01-22T06:00:25.694Z,3.4
2023-01-22T06:06:48.691Z,7.2
2023-01-22T06:13:08.514Z,7.2
2023-01-22T06:19:31.639Z,6.1
2023-01-22T06:25:51.572Z,6.1
2023-01-22T06:32:14.596Z,6.9
2023-01-22T06:38:34.727Z,6.9
2023-01-22T06:44:57.553Z,7.4
2023-01-22T06:51:17.598Z,7.4
2023-01-22T06:57:40.686Z,5.8
2023-01-22T07:04:00.731Z,5.8
2023-01-22T07:10:23.654Z,7
2023-01-22T07:16:43.769Z,7
2023-01-22T07:23:06.719Z,5
2023-01-22T07:29:26.589Z,5
2023-01-22T07:35:49.648Z,4.5
2023-01-22T07:42:09.651Z,4.5
2023-01-22T07:48:32.714Z,5.9
2023-01-22T07:54:52.663Z,5.9
2023-01-22T08:01:15.872Z,5.6
2023-01-22T08:07:35.604Z,5.6
2023-01-22T08:13:59.262Z,1.9
2023-01-22T08:20:19.820Z,1.9
2023-01-22T08:26:42.524Z,3.8
2023-01-22T08:33:03.091Z,3.8
2023-01-22T08:39:25.655Z,5.3
2023-01-22T08:45:45.643Z,5.3
2023-01-22T08:52:08.630Z,5.2
2023-01-22T08:58:28.625Z,5.2
2023-01-22T09:20:58.647Z,10.2
2023-01-22T09:27:18.539Z,10.2
2023-01-22T09:33:41.779Z,10.2
2023-01-22T09:40:01.736Z,10.2
2023-01-22T09:46:24.727Z,4.1
2023-01-22T09:52:44.565Z,4.1
2023-01-22T09:59:07.693Z,4.2
2023-01-22T10:05:27.556Z,4.2
2023-01-22T10:11:50.493Z,10
2023-01-22T10:18:10.855Z,10
2023-01-22T10:24:33.693Z,6.3
2023-01-22T10:30:53.989Z,6.3
2023-01-22T10:37:16.684Z,4.6
2023-01-22T10:43:36.586Z,4.6
2023-01-22T10:49:59.625Z,5
2023-01-22T10:56:19.784Z,5
2023-01-22T11:02:42.586Z,4.7
2023-01-22T11:09:02.846Z,4.7
2023-01-22T11:15:25.642Z,5.3
2023-01-22T11:21:45.866Z,5.3
2023-01-22T11:28:08.524Z,5.7
2023-01-22T11:34:28.674Z,5.7
2023-01-22T11:40:51.505Z,6
2023-01-22T11:47:11.721Z,6
2023-01-22T11:53:34.690Z,5.5
2023-01-22T11:59:54.753Z,5.5
2023-01-22T12:06:17.610Z,2.7
2023-01-22T12:12:37.686Z,2.7
2023-01-22T12:19:00.811Z,4.7
2023-01-22T12:25:20.547Z,4.7
2023-01-22T12:31:43.760Z,4.4
2023-01-22T12:38:03.761Z,4.4
2023-01-22T12:44:26.539Z,4.3
2023-01-22T12:50:46.770Z,4.3
2023-01-22T12:57:09.476Z,5.3
2023-01-22T13:03:31.892Z,5.3
2023-01-22T13:09:52.724Z,4.5
2023-01-22T13:16:12.602Z,4.5
2023-01-22T13:22:35.603Z,3.1
2023-01-22T13:28:55.680Z,3.1
2023-01-22T13:35:19.961Z,3.9
2023-01-22T13:41:38.569Z,3.9
2023-01-22T13:48:03.799Z,4
2023-01-22T13:54:21.535Z,4
2023-01-22T14:09:55.568Z,2.2
2023-01-22T14:16:15.583Z,2.2
2023-01-22T14:22:38.634Z,2.1
2023-01-22T14:28:58.798Z,2.1
2023-01-22T14:35:21.973Z,1.8
2023-01-22T14:41:41.934Z,1.8
2023-01-22T14:48:04.671Z,4.8
2023-01-22T14:54:24.534Z,4.8
2023-01-22T15:00:47.992Z,2.6
2023-01-22T15:07:07.672Z,2.6
2023-01-22T15:13:30.539Z,4.1
2023-01-22T15:19:50.671Z,4.1
2023-01-22T15:26:13.847Z,2.3
2023-01-22T15:32:33.605Z,2.3
2023-01-22T15:38:56.728Z,2
2023-01-22T15:45:16.799Z,2
2023-01-22T15:51:39.619Z,2.8
2023-01-22T15:57:59.652Z,2.8
2023-01-22T16:04:22.647Z,5.3
2023-01-22T16:10:42.489Z,5.3
2023-01-22T16:17:05.650Z,3.2
2023-01-22T16:23:25.616Z,3.2
2023-01-22T16:29:48.664Z,2.4
2023-01-22T16:36:08.685Z,2.4
2023-01-22T16:42:31.776Z,3.1
2023-01-22T16:48:51.667Z,3.1
2023-01-22T16:55:14.489Z,4.1
2023-01-22T17:01:34.742Z,4.1
2023-01-22T17:07:57.704Z,5.5
2023-01-22T17:14:17.718Z,5.5
2023-01-22T17:20:43.199Z,4.1
2023-01-22T17:27:00.527Z,4.1
2023-01-22T17:33:23.534Z,4.5
2023-01-22T17:39:43.723Z,4.5
2023-01-22T17:46:06.558Z,7.3
2023-01-22T17:52:26.552Z,7.3
2023-01-22T17:58:49.801Z,5.9
2023-01-22T18:05:10.422Z,5.9
2023-01-22T18:11:32.670Z,7.5
2023-01-22T18:17:52.820Z,7.5
2023-01-22T18:24:15.635Z,6.3
2023-01-22T18:30:35.539Z,6.3
2023-01-22T18:36:58.625Z,5.8
2023-01-22T18:43:18.684Z,5.8
2023-01-22T19:07:00.624Z,7.8
2023-01-22T19:13:23.487Z,12.6
2023-01-22T19:19:43.560Z,12.6
2023-01-22T19:26:06.665Z,12.6
2023-01-22T19:32:26.519Z,12.6
2023-01-22T19:38:49.532Z,5.3
2023-01-22T19:45:09.763Z,5.3
2023-01-22T19:51:32.659Z,5.4
2023-01-22T19:57:52.590Z,5.4
2023-01-22T20:04:15.663Z,9.1
2023-01-22T20:10:35.656Z,9.1
2023-01-22T20:16:58.567Z,5.8
2023-01-22T20:23:18.676Z,5.8
2023-01-22T20:29:41.593Z,8.4
2023-01-22T20:36:01.840Z,8.4
2023-01-22T20:42:24.826Z,7.5
2023-01-22T20:48:44.597Z,7.5
2023-01-22T20:55:07.677Z,7.5
2023-01-22T21:01:28.024Z,7.5
2023-01-22T21:07:50.572Z,5.7
2023-01-22T21:14:10.670Z,5.7
2023-01-22T21:20:33.673Z,7.8
2023-01-22T21:26:53.927Z,7.8
2023-01-22T21:33:18.905Z,6.7
2023-01-22T21:39:36.700Z,6.7
2023-01-22T21:45:59.582Z,4.7
2023-01-22T21:52:19.598Z,4.7
2023-01-22T21:58:42.741Z,5.8
2023-01-22T22:05:02.667Z,5.8
2023-01-22T22:11:25.639Z,8.2
2023-01-22T22:17:45.777Z,8.2
2023-01-22T22:24:08.558Z,8.4
2023-01-22T22:30:28.648Z,8.4
2023-01-22T22:36:51.687Z,4.8
2023-01-22T22:43:11.499Z,4.8
2023-01-22T22:49:34.666Z,4.4
2023-01-22T22:55:54.744Z,4.4
2023-01-22T23:02:17.592Z,5
2023-01-22T23:25:14.628Z,16.5
2023-01-22T23:31:34.651Z,16.5
2023-01-22T23:37:57.653Z,16.5
2023-01-22T23:44:17.783Z,16.5
2023-01-22T23:50:40.594Z,9
2023-01-22T23:57:00.541Z,9
